Time;durP1;ratioP1;P1;durP2;ratioP2;P2;SDS_P1;SDS_P2;PMS_P1;PMS_P2;Temp;Humidity;BMP_temperature;BMP_pressure;BME280_temperature;BME280_humidity;BME280_pressure;Samples;Min_cycle;Max_cycle;Signal;HPM_P1;HPM_P2
2021/07/21 00:01:54;;;;;;;4.05;3.65;;;;;;;;;;5093308;28;20040;-61
2021/07/21 00:04:20;;;;;;;5.00;3.53;;;;;;;;;;5093772;28;20032;-60
2021/07/21 00:06:45;;;;;;;5.78;3.80;;;;;;;;;;5089288;28;20032;-69
2021/07/21 00:09:11;;;;;;;4.07;3.60;;;;;;;;;;5093610;28;20460;-71
2021/07/21 00:14:20;;;;;;;3.92;3.63;;;;;;;;;;5093673;28;20028;-71
2021/07/21 00:16:53;;;;;;;4.88;4.25;;;;;;;;;;5093630;28;20032;-71
2021/07/21 00:22:03;;;;;;;4.15;3.78;;;;;;;;;;5093672;28;20032;-71
2021/07/21 00:24:28;;;;;;;4.35;3.88;;;;;;;;;;5093458;28;20028;-71
2021/07/21 00:26:53;;;;;;;4.32;3.92;;;;;;;;;;5093575;28;20031;-71
2021/07/21 00:29:19;;;;;;;4.55;3.45;;;;;;;;;;5093354;28;20070;-71
2021/07/21 00:31:45;;;;;;;4.25;3.45;;;;;;;;;;5075339;28;20029;-71
2021/07/21 00:34:12;;;;;;;4.03;3.67;;;;;;;;;;5093382;28;20022;-71
2021/07/21 00:36:38;;;;;;;3.67;3.35;;;;;;;;;;5096988;28;20024;-70
2021/07/21 00:39:04;;;;;;;4.55;3.95;;;;;;;;;;5079384;28;20024;-70
2021/07/21 00:41:31;;;;;;;4.03;3.63;;;;;;;;;;5078532;28;20138;-69
2021/07/21 00:43:58;;;;;;;5.45;3.47;;;;;;;;;;5078998;28;20535;-70
2021/07/21 00:46:23;;;;;;;7.38;3.97;;;;;;;;;;5079021;28;20123;-70
2021/07/21 00:48:51;;;;;;;4.38;3.50;;;;;;;;;;5078909;28;20024;-70
2021/07/21 00:51:17;;;;;;;4.22;3.47;;;;;;;;;;5079243;28;20073;-71
2021/07/21 00:53:43;;;;;;;3.78;3.42;;;;;;;;;;5079143;28;20012;-71
2021/07/21 00:56:13;;;;;;;3.72;3.30;;;;;;;;;;5079256;28;20106;-71
2021/07/21 00:58:39;;;;;;;4.75;3.17;;;;;;;;;;5096817;28;20448;-72
2021/07/21 01:01:04;;;;;;;3.80;3.45;;;;;;;;;;5078678;28;20075;-71
2021/07/21 01:03:31;;;;;;;5.05;3.40;;;;;;;;;;5078732;28;20047;-71
2021/07/21 01:05:59;;;;;;;3.72;3.35;;;;;;;;;;5096674;28;20043;-71
2021/07/21 01:08:24;;;;;;;6.45;3.65;;;;;;;;;;5078615;28;20020;-71
2021/07/21 01:11:13;;;;;;;4.82;3.47;;;;;;;;;;5097222;28;20551;-60
2021/07/21 01:13:41;;;;;;;5.15;3.30;;;;;;;;;;5097088;28;20035;-60
2021/07/21 01:16:08;;;;;;;3.85;3.33;;;;;;;;;;5078395;28;20082;-60
2021/07/21 01:18:40;;;;;;;4.47;3.67;;;;;;;;;;5097116;28;20065;-60
2021/07/21 01:21:28;;;;;;;4.32;3.88;;;;;;;;;;5078609;28;20382;-60
2021/07/21 01:24:13;;;;;;;5.63;3.65;;;;;;;;;;5096628;28;20020;-60
2021/07/21 01:26:48;;;;;;;4.82;3.42;;;;;;;;;;5078208;28;20036;-60
2021/07/21 01:29:15;;;;;;;4.20;3.60;;;;;;;;;;5078480;28;20024;-60
2021/07/21 01:31:43;;;;;;;5.38;3.10;;;;;;;;;;5061394;28;20016;-60
2021/07/21 01:34:09;;;;;;;8.63;3.88;;;;;;;;;;5078482;28;20126;-60
2021/07/21 01:36:42;;;;;;;6.38;3.63;;;;;;;;;;5078484;28;20016;-60
2021/07/21 01:39:09;;;;;;;3.70;3.33;;;;;;;;;;5078492;28;20459;-60
2021/07/21 01:41:40;;;;;;;4.78;3.15;;;;;;;;;;5077461;28;20391;-60
2021/07/21 01:44:32;;;;;;;3.53;3.22;;;;;;;;;;5078105;28;20063;-60
2021/07/21 01:47:01;;;;;;;4.35;3.80;;;;;;;;;;5093403;28;20092;-71
2021/07/21 01:49:37;;;;;;;4.60;3.85;;;;;;;;;;5077950;28;20016;-70
2021/07/21 01:52:08;;;;;;;4.00;3.65;;;;;;;;;;5078457;28;20031;-71
2021/07/21 01:54:34;;;;;;;3.72;3.42;;;;;;;;;;5077860;28;20081;-71
2021/07/21 01:57:08;;;;;;;4.18;3.22;;;;;;;;;;5078268;28;20035;-71
2021/07/21 01:59:37;;;;;;;3.85;3.53;;;;;;;;;;5077797;28;20028;-72
2021/07/21 02:02:09;;;;;;;4.13;3.60;;;;;;;;;;5077851;28;20059;-70
2021/07/21 02:04:56;;;;;;;5.20;3.05;;;;;;;;;;5078013;28;20047;-71
2021/07/21 02:07:24;;;;;;;4.07;3.30;;;;;;;;;;5061171;28;20527;-71
2021/07/21 02:09:53;;;;;;;4.80;3.80;;;;;;;;;;5061184;28;20020;-70
2021/07/21 02:12:39;;;;;;;4.47;3.45;;;;;;;;;;5095518;28;20043;-70
2021/07/21 02:15:07;;;;;;;3.75;3.25;;;;;;;;;;5077341;28;20438;-70
2021/07/21 02:17:33;;;;;;;4.22;3.33;;;;;;;;;;5077205;28;20073;-69
2021/07/21 02:20:00;;;;;;;3.75;3.42;;;;;;;;;;5077550;28;20040;-69
2021/07/21 02:22:43;;;;;;;3.75;3.35;;;;;;;;;;5077357;28;20082;-69
2021/07/21 02:25:31;;;;;;;3.80;3.35;;;;;;;;;;5057056;28;20044;-69
2021/07/21 02:27:57;;;;;;;3.65;3.35;;;;;;;;;;5077319;28;20031;-70
2021/07/21 02:30:24;;;;;;;3.85;3.25;;;;;;;;;;5077373;28;20012;-70
2021/07/21 02:33:06;;;;;;;4.88;3.20;;;;;;;;;;5077050;28;20024;-70
2021/07/21 02:35:32;;;;;;;4.18;3.30;;;;;;;;;;5095516;28;20024;-71
2021/07/21 02:37:59;;;;;;;4.32;3.08;;;;;;;;;;5076920;28;20498;-71
2021/07/21 02:40:27;;;;;;;3.83;3.30;;;;;;;;;;5076697;28;20059;-70
2021/07/21 02:43:07;;;;;;;3.47;3.08;;;;;;;;;;5077211;28;20451;-71
2021/07/21 02:45:35;;;;;;;3.17;2.97;;;;;;;;;;5076857;28;20089;-71
2021/07/21 02:48:02;;;;;;;4.13;2.95;;;;;;;;;;5076369;28;20024;-71
2021/07/21 02:50:28;;;;;;;3.95;3.25;;;;;;;;;;5076899;28;20032;-71
2021/07/21 02:53:00;;;;;;;3.40;3.00;;;;;;;;;;5076868;28;20016;-71
2021/07/21 02:55:52;;;;;;;3.00;2.80;;;;;;;;;;5093719;28;20062;-71
2021/07/21 02:58:23;;;;;;;3.00;2.78;;;;;;;;;;5076200;28;20032;-70
2021/07/21 03:00:56;;;;;;;3.55;3.10;;;;;;;;;;5076644;28;20052;-70
2021/07/21 03:03:22;;;;;;;3.95;3.17;;;;;;;;;;5076404;28;20031;-71
2021/07/21 03:05:50;;;;;;;3.60;2.80;;;;;;;;;;5076609;28;20020;-70
2021/07/21 03:08:29;;;;;;;4.15;3.00;;;;;;;;;;5076198;28;20027;-70
2021/07/21 03:11:04;;;;;;;4.72;3.20;;;;;;;;;;5076555;28;20386;-71
2021/07/21 03:13:37;;;;;;;4.15;2.67;;;;;;;;;;5076272;28;20035;-72
2021/07/21 03:16:04;;;;;;;4.15;2.97;;;;;;;;;;5076416;28;20081;-71
2021/07/21 03:19:01;;;;;;;3.05;2.75;;;;;;;;;;5090102;28;20487;-71
2021/07/21 03:21:34;;;;;;;3.47;3.10;;;;;;;;;;5094528;28;20487;-72
2021/07/21 03:24:10;;;;;;;3.30;3.00;;;;;;;;;;5076434;28;20028;-71
2021/07/21 03:26:42;;;;;;;3.75;3.22;;;;;;;;;;5094257;28;20039;-71
2021/07/21 03:29:10;;;;;;;4.22;3.45;;;;;;;;;;5076199;28;20023;-72
2021/07/21 03:31:38;;;;;;;3.30;3.03;;;;;;;;;;5094064;28;20065;-72
2021/07/21 03:34:08;;;;;;;3.50;2.88;;;;;;;;;;5076017;28;20030;-71
2021/07/21 03:36:45;;;;;;;3.00;2.80;;;;;;;;;;5093920;28;20023;-60
2021/07/21 03:39:43;;;;;;;3.72;2.92;;;;;;;;;;5072789;28;20043;-61
2021/07/21 03:42:17;;;;;;;3.08;2.80;;;;;;;;;;5075631;28;20055;-60
2021/07/21 03:44:45;;;;;;;4.70;2.97;;;;;;;;;;5075406;28;20032;-60
2021/07/21 03:47:13;;;;;;;2.97;2.78;;;;;;;;;;5075756;28;20024;-60
2021/07/21 03:49:40;;;;;;;4.90;3.10;;;;;;;;;;5075781;28;20055;-60
2021/07/21 03:52:11;;;;;;;2.90;2.63;;;;;;;;;;5075633;28;20018;-72
2021/07/21 03:54:37;;;;;;;3.65;2.88;;;;;;;;;;5093863;28;20040;-60
2021/07/21 03:57:17;;;;;;;3.08;2.83;;;;;;;;;;5093670;28;20015;-71
2021/07/21 03:59:43;;;;;;;3.28;2.97;;;;;;;;;;5075582;28;20467;-71
2021/07/21 04:02:09;;;;;;;3.28;2.75;;;;;;;;;;5075535;28;20020;-71
2021/07/21 04:04:37;;;;;;;3.40;3.10;;;;;;;;;;5075772;28;20032;-71
2021/07/21 04:07:04;;;;;;;3.38;2.97;;;;;;;;;;5075783;28;20399;-72
2021/07/21 04:09:45;;;;;;;2.95;2.70;;;;;;;;;;5075375;28;20025;-72
2021/07/21 04:12:13;;;;;;;3.83;2.53;;;;;;;;;;5075476;28;20026;-72
2021/07/21 04:14:49;;;;;;;3.15;2.85;;;;;;;;;;5093014;28;20012;-71
2021/07/21 04:17:34;;;;;;;4.22;2.90;;;;;;;;;;5075586;28;20055;-71
2021/07/21 04:20:06;;;;;;;3.85;2.95;;;;;;;;;;5075529;28;20035;-72
2021/07/21 04:22:32;;;;;;;5.25;3.10;;;;;;;;;;5092817;28;20031;-71
2021/07/21 04:24:58;;;;;;;3.00;2.80;;;;;;;;;;5093531;28;20021;-72
2021/07/21 04:27:24;;;;;;;4.10;3.05;;;;;;;;;;5074676;28;20024;-72
2021/07/21 04:30:04;;;;;;;3.38;2.42;;;;;;;;;;5075245;28;20020;-72
2021/07/21 04:32:32;;;;;;;3.38;3.00;;;;;;;;;;5075069;28;20479;-73
2021/07/21 04:34:58;;;;;;;3.15;2.72;;;;;;;;;;5075128;28;20019;-73
2021/07/21 04:37:25;;;;;;;4.25;3.00;;;;;;;;;;5075078;28;20034;-72
2021/07/21 04:40:03;;;;;;;4.28;3.10;;;;;;;;;;5092947;28;20036;-73
2021/07/21 04:42:43;;;;;;;3.60;3.30;;;;;;;;;;5093038;28;20052;-73
2021/07/21 04:45:11;;;;;;;3.17;2.80;;;;;;;;;;5075234;28;20035;-71
2021/07/21 04:47:37;;;;;;;2.97;2.78;;;;;;;;;;5074965;28;20027;-72
2021/07/21 04:50:10;;;;;;;3.00;2.80;;;;;;;;;;5093346;28;20028;-72
2021/07/21 04:52:37;;;;;;;3.25;2.95;;;;;;;;;;5075158;28;20564;-72
2021/07/21 04:55:04;;;;;;;3.75;3.03;;;;;;;;;;5093265;28;20099;-72
2021/07/21 04:57:29;;;;;;;3.38;3.08;;;;;;;;;;5074895;28;20024;-73
2021/07/21 05:00:02;;;;;;;8.93;2.88;;;;;;;;;;5074955;28;20099;-71
2021/07/21 05:02:43;;;;;;;3.55;2.85;;;;;;;;;;5075024;28;20028;-72
2021/07/21 05:05:09;;;;;;;4.13;2.97;;;;;;;;;;5074974;28;20028;-71
2021/07/21 05:07:39;;;;;;;4.55;3.10;;;;;;;;;;5074860;28;20062;-71
2021/07/21 05:10:12;;;;;;;4.07;2.95;;;;;;;;;;5075176;28;20073;-71
2021/07/21 05:12:44;;;;;;;3.15;2.95;;;;;;;;;;5074944;28;20028;-71
2021/07/21 05:15:12;;;;;;;3.40;3.10;;;;;;;;;;5074682;28;20035;-73
2021/07/21 05:17:37;;;;;;;4.57;3.15;;;;;;;;;;5092784;28;20024;-73
2021/07/21 05:20:10;;;;;;;3.78;3.00;;;;;;;;;;5074680;28;20369;-73
2021/07/21 05:22:48;;;;;;;3.40;2.83;;;;;;;;;;5078473;28;20093;-72
2021/07/21 05:25:15;;;;;;;3.53;2.90;;;;;;;;;;5078623;28;20541;-70
2021/07/21 05:27:57;;;;;;;4.13;3.17;;;;;;;;;;5078213;28;20440;-72
2021/07/21 05:30:23;;;;;;;3.97;3.05;;;;;;;;;;5096243;28;20024;-60
2021/07/21 05:33:02;;;;;;;3.72;3.15;;;;;;;;;;5078066;28;20020;-60
2021/07/21 05:35:29;;;;;;;3.70;3.33;;;;;;;;;;5077880;28;20024;-60
2021/07/21 05:38:06;;;;;;;3.58;3.22;;;;;;;;;;5077925;28;20030;-60
2021/07/21 05:40:32;;;;;;;3.88;3.22;;;;;;;;;;5095995;28;20378;-72
2021/07/21 05:43:17;;;;;;;3.40;3.15;;;;;;;;;;5095644;28;20495;-72
2021/07/21 05:46:05;;;;;;;3.75;3.30;;;;;;;;;;5078092;28;20501;-72
2021/07/21 05:48:36;;;;;;;3.83;3.20;;;;;;;;;;5077925;28;20024;-72
2021/07/21 05:51:20;;;;;;;3.40;3.00;;;;;;;;;;5096549;28;20050;-72
2021/07/21 05:53:49;;;;;;;3.83;3.13;;;;;;;;;;5078023;28;20066;-72
2021/07/21 05:56:17;;;;;;;6.57;3.53;;;;;;;;;;5078097;28;20375;-69
2021/07/21 05:58:53;;;;;;;3.42;3.13;;;;;;;;;;5077843;28;20043;-72
2021/07/21 06:01:18;;;;;;;5.25;3.47;;;;;;;;;;5077689;28;20031;-71
2021/07/21 06:03:44;;;;;;;3.72;3.10;;;;;;;;;;5077486;28;20103;-72
2021/07/21 06:06:15;;;;;;;7.57;3.67;;;;;;;;;;5095809;28;20429;-72
2021/07/21 06:08:59;;;;;;;3.97;3.00;;;;;;;;;;5095995;28;20101;-72
2021/07/21 06:11:31;;;;;;;3.60;3.28;;;;;;;;;;5077519;28;20024;-71
2021/07/21 06:14:00;;;;;;;4.70;3.40;;;;;;;;;;5077665;28;20024;-72
2021/07/21 06:16:27;;;;;;;9.90;3.50;;;;;;;;;;5077319;28;20008;-72
2021/07/21 06:18:53;;;;;;;3.45;3.15;;;;;;;;;;5095686;28;20153;-71
2021/07/21 06:21:19;;;;;;;4.07;3.13;;;;;;;;;;5095369;28;20061;-71
2021/07/21 06:24:04;;;;;;;4.25;3.47;;;;;;;;;;5095655;28;20086;-72
2021/07/21 06:26:30;;;;;;;3.50;2.90;;;;;;;;;;5077015;28;20024;-72
2021/07/21 06:29:14;;;;;;;3.40;2.95;;;;;;;;;;5095050;28;20039;-72
2021/07/21 06:31:45;;;;;;;3.75;3.20;;;;;;;;;;5077034;28;20380;-71
2021/07/21 06:34:12;;;;;;;6.47;3.55;;;;;;;;;;5076850;28;20027;-71
2021/07/21 06:36:38;;;;;;;6.80;3.15;;;;;;;;;;5076834;28;20045;-71
2021/07/21 06:39:04;;;;;;;9.07;5.38;;;;;;;;;;5077298;28;20384;-71
2021/07/21 06:41:34;;;;;;;4.57;3.85;;;;;;;;;;5094730;28;20051;-61
2021/07/21 06:44:03;;;;;;;3.97;3.25;;;;;;;;;;5095002;28;20036;-60
2021/07/21 06:47:04;;;;;;;3.72;3.42;;;;;;;;;;5012761;28;20033;-61
2021/07/21 06:49:32;;;;;;;6.57;4.57;;;;;;;;;;5078876;28;20133;-61
2021/07/21 06:51:57;;;;;;;7.00;3.72;;;;;;;;;;5076679;28;20024;-61
2021/07/21 06:54:31;;;;;;;4.07;2.70;;;;;;;;;;5076804;28;20024;-61
2021/07/21 06:57:15;;;;;;;40.30;20.55;;;;;;;;;;5095058;28;20036;-61
2021/07/21 06:59:44;;;;;;;8.60;5.22;;;;;;;;;;5094846;28;20502;-61
2021/07/21 07:02:17;;;;;;;3.13;2.83;;;;;;;;;;5076476;28;20016;-61
2021/07/21 07:05:02;;;;;;;3.95;3.28;;;;;;;;;;5095176;28;20421;-61
2021/07/21 07:07:46;;;;;;;149.60;69.47;;;;;;;;;;5094855;28;20039;-61
2021/07/21 07:10:30;;;;;;;4.53;3.85;;;;;;;;;;5094508;28;20137;-61
2021/07/21 07:12:57;;;;;;;498.67;237.23;;;;;;;;;;5093400;28;20522;-61
2021/07/21 07:15:22;;;;;;;139.05;52.80;;;;;;;;;;5093348;28;20012;-61
2021/07/21 07:17:50;;;;;;;7.82;5.65;;;;;;;;;;5093251;28;20274;-61
2021/07/21 07:27:25;;;;;;;13.50;7.78;;;;;;;;;;5094769;28;20379;-61
2021/07/21 07:33:26;;;;;;;79.55;58.47;;;;;;;;;;5094491;28;20537;-61
2021/07/21 07:39:26;;;;;;;10.73;7.35;;;;;;;;;;5094636;28;20027;-61
2021/07/21 07:48:42;;;;;;;4.00;3.60;;;;;;;;;;5094234;28;20046;-61
2021/07/21 07:54:43;;;;;;;4.47;3.20;;;;;;;;;;5094367;28;20066;-61
2021/07/21 08:00:44;;;;;;;4.65;3.30;;;;;;;;;;5094305;28;20536;-61
2021/07/21 08:06:45;;;;;;;3.50;2.97;;;;;;;;;;5093964;28;20091;-61
2021/07/21 08:12:46;;;;;;;5.03;3.63;;;;;;;;;;5094140;28;20046;-61
2021/07/21 08:18:46;;;;;;;5.50;3.50;;;;;;;;;;5094043;28;20098;-61
2021/07/21 08:24:47;;;;;;;3.38;3.05;;;;;;;;;;5093971;28;20070;-61
2021/07/21 08:30:49;;;;;;;4.43;3.22;;;;;;;;;;5093924;28;20123;-61
2021/07/21 08:36:50;;;;;;;3.97;3.13;;;;;;;;;;5093882;28;20441;-61
2021/07/21 08:42:52;;;;;;;3.35;3.05;;;;;;;;;;5093796;28;20027;-61
2021/07/21 08:52:16;;;;;;;3.13;2.83;;;;;;;;;;5094023;28;20200;-61
2021/07/21 09:02:11;;;;;;;3.58;2.72;;;;;;;;;;5097659;28;20031;-61
2021/07/21 09:08:12;;;;;;;3.30;2.45;;;;;;;;;;5097423;28;20062;-61
2021/07/21 09:14:13;;;;;;;3.33;2.85;;;;;;;;;;5097416;28;20402;-61
2021/07/21 09:20:16;;;;;;;5.07;2.70;;;;;;;;;;5097586;28;20554;-61
2021/07/21 09:26:18;;;;;;;3.50;2.60;;;;;;;;;;5097199;28;20407;-61
2021/07/21 09:32:18;;;;;;;3.40;2.65;;;;;;;;;;5096816;28;20031;-61
2021/07/21 09:38:20;;;;;;;4.18;3.10;;;;;;;;;;5096939;28;20058;-61
2021/07/21 09:55:38;;;;;;;7.88;3.10;;;;;;;;;;4975417;28;19916;-61
2021/07/21 10:01:38;;;;;;;2.70;2.50;;;;;;;;;;4975471;28;20033;-61
2021/07/21 10:18:14;;;;;;;4.40;2.72;;;;;;;;;;4975378;28;20078;-61
2021/07/21 10:24:15;;;;;;;3.20;2.42;;;;;;;;;;5047421;28;20124;-61
2021/07/21 10:30:15;;;;;;;3.90;2.90;;;;;;;;;;5075752;28;20573;-61
2021/07/21 10:36:17;;;;;;;2.70;2.40;;;;;;;;;;5075594;28;20115;-61
2021/07/21 10:42:18;;;;;;;4.40;3.10;;;;;;;;;;5075252;28;20506;-61
2021/07/21 10:48:53;;;;;;;3.70;2.83;;;;;;;;;;5075047;28;20046;-61
2021/07/21 11:02:19;;;;;;;3.25;2.75;;;;;;;;;;5075115;28;20070;-61
2021/07/21 11:12:09;;;;;;;3.10;2.88;;;;;;;;;;5074910;28;20027;-61
2021/07/21 11:25:22;;;;;;;2.97;2.67;;;;;;;;;;5074621;28;20019;-61
2021/07/21 11:53:22;;;;;;;4.85;2.97;;;;;;;;;;5032183;28;20076;-61
2021/07/21 11:59:25;;;;;;;3.47;2.83;;;;;;;;;;5031876;28;20067;-61
2021/07/21 12:02:10;;;;;;;3.00;2.78;;;;;;;;;;4998666;28;20049;-61
2021/07/21 12:04:36;;;;;;;3.58;2.90;;;;;;;;;;5030765;28;20033;-61
2021/07/21 12:07:02;;;;;;;3.13;2.85;;;;;;;;;;5031197;28;20068;-61
2021/07/21 12:09:29;;;;;;;2.83;2.60;;;;;;;;;;5031398;28;20074;-61
2021/07/21 12:11:59;;;;;;;5.28;2.95;;;;;;;;;;5051560;28;20449;-61
2021/07/21 12:14:26;;;;;;;3.75;2.53;;;;;;;;;;5075502;28;20035;-61
2021/07/21 12:16:53;;;;;;;2.97;2.78;;;;;;;;;;5093351;28;20020;-61
2021/07/21 12:19:25;;;;;;;2.95;2.75;;;;;;;;;;5093533;28;20070;-61
2021/07/21 12:22:20;;;;;;;3.17;2.38;;;;;;;;;;5093379;28;20024;-62
2021/07/21 12:24:47;;;;;;;4.40;2.67;;;;;;;;;;5071805;28;20040;-61
2021/07/21 12:27:14;;;;;;;4.15;2.92;;;;;;;;;;5093150;28;20418;-61
2021/07/21 12:29:40;;;;;;;3.05;2.75;;;;;;;;;;5093434;28;20047;-61
2021/07/21 12:32:12;;;;;;;4.80;3.20;;;;;;;;;;5099808;28;20024;-61
2021/07/21 12:34:39;;;;;;;3.30;3.00;;;;;;;;;;5100401;28;20515;-61
2021/07/21 12:37:08;;;;;;;3.03;2.70;;;;;;;;;;5099996;28;20043;-61
2021/07/21 12:39:33;;;;;;;3.00;2.80;;;;;;;;;;5100056;28;20479;-62
2021/07/21 12:42:25;;;;;;;3.40;3.10;;;;;;;;;;5099910;28;20039;-61
2021/07/21 12:44:52;;;;;;;2.83;2.63;;;;;;;;;;5077014;28;20035;-62
2021/07/21 12:47:27;;;;;;;4.40;2.85;;;;;;;;;;5099680;28;20024;-61
2021/07/21 12:49:55;;;;;;;3.47;2.90;;;;;;;;;;5077757;28;20090;-61
2021/07/21 12:52:22;;;;;;;3.63;3.33;;;;;;;;;;5079542;28;20421;-62
2021/07/21 12:54:49;;;;;;;3.00;2.75;;;;;;;;;;5079640;28;20028;-61
2021/07/21 12:57:14;;;;;;;5.47;4.40;;;;;;;;;;5079717;28;20107;-73
2021/07/21 12:59:40;;;;;;;4.80;3.30;;;;;;;;;;5079150;28;20104;-62
2021/07/21 13:02:09;;;;;;;4.40;2.97;;;;;;;;;;5078165;28;20085;-74
2021/07/21 13:04:35;;;;;;;3.38;3.00;;;;;;;;;;5079371;28;20442;-73
2021/07/21 13:07:01;;;;;;;3.70;3.03;;;;;;;;;;5079416;28;20020;-73
2021/07/21 13:09:26;;;;;;;6.20;3.92;;;;;;;;;;5079403;28;20031;-73
2021/07/21 13:11:52;;;;;;;3.60;2.97;;;;;;;;;;5079156;28;20372;-73
2021/07/21 13:14:17;;;;;;;7.22;4.15;;;;;;;;;;5077752;28;20024;-75
2021/07/21 13:16:43;;;;;;;4.60;2.95;;;;;;;;;;5077796;28;20376;-62
2021/07/21 13:19:12;;;;;;;2.78;2.47;;;;;;;;;;5079205;28;20028;-62
2021/07/21 13:21:38;;;;;;;2.92;2.38;;;;;;;;;;5079355;28;20104;-62
2021/07/21 13:24:19;;;;;;;3.63;2.70;;;;;;;;;;5079154;28;20468;-62
2021/07/21 13:27:00;;;;;;;4.20;2.60;;;;;;;;;;5061349;28;20036;-62
2021/07/21 13:29:36;;;;;;;3.97;2.72;;;;;;;;;;5079316;28;20029;-61
2021/07/21 13:32:03;;;;;;;3.58;2.80;;;;;;;;;;5079295;28;20100;-62
2021/07/21 13:34:33;;;;;;;3.83;2.83;;;;;;;;;;5079100;28;20403;-62
2021/07/21 13:37:00;;;;;;;3.00;2.80;;;;;;;;;;5079262;28;20392;-62
2021/07/21 13:39:25;;;;;;;7.28;3.40;;;;;;;;;;5079491;28;20499;-62
2021/07/21 13:41:56;;;;;;;2.95;2.58;;;;;;;;;;5077366;28;20041;-62
2021/07/21 13:44:26;;;;;;;2.83;2.63;;;;;;;;;;5075993;28;20479;-62
2021/07/21 13:46:55;;;;;;;3.05;2.75;;;;;;;;;;5074075;28;20021;-62
2021/07/21 13:49:28;;;;;;;2.70;2.50;;;;;;;;;;5037415;28;20393;-62
2021/07/21 13:51:56;;;;;;;2.83;2.47;;;;;;;;;;5056125;28;20370;-62
2021/07/21 13:54:23;;;;;;;4.22;2.80;;;;;;;;;;5055329;28;20485;-62
2021/07/21 13:56:50;;;;;;;3.13;2.83;;;;;;;;;;5054446;28;20071;-62
2021/07/21 13:59:16;;;;;;;2.92;2.53;;;;;;;;;;5055658;28;20025;-62
2021/07/21 14:01:42;;;;;;;3.42;2.67;;;;;;;;;;5055668;28;20078;-61
2021/07/21 14:04:08;;;;;;;2.90;2.70;;;;;;;;;;5055664;28;20098;-61
2021/07/21 14:06:34;;;;;;;4.28;2.88;;;;;;;;;;5055611;28;20110;-62
2021/07/21 14:08:59;;;;;;;5.35;2.88;;;;;;;;;;5055581;28;20079;-62
2021/07/21 14:11:25;;;;;;;3.50;2.53;;;;;;;;;;5055488;28;20024;-62
2021/07/21 14:13:51;;;;;;;3.67;2.67;;;;;;;;;;5055245;28;20013;-62
2021/07/21 14:16:18;;;;;;;2.75;2.53;;;;;;;;;;5055417;28;20110;-62
2021/07/21 14:18:45;;;;;;;9.65;2.95;;;;;;;;;;5055326;28;20426;-61
2021/07/21 14:21:11;;;;;;;4.90;2.58;;;;;;;;;;5055265;28;20147;-61
2021/07/21 14:23:40;;;;;;;2.60;2.40;;;;;;;;;;5055430;28;20108;-61
2021/07/21 14:26:06;;;;;;;2.80;2.60;;;;;;;;;;5054927;28;20025;-61
2021/07/21 14:28:31;;;;;;;3.65;3.08;;;;;;;;;;5054891;28;20024;-61
2021/07/21 14:30:57;;;;;;;3.08;2.72;;;;;;;;;;5054763;28;20033;-61
2021/07/21 14:33:29;;;;;;;3.55;2.53;;;;;;;;;;5054045;28;20441;-61
2021/07/21 14:35:55;;;;;;;4.63;3.08;;;;;;;;;;5053982;28;20021;-61
2021/07/21 14:38:21;;;;;;;2.83;2.35;;;;;;;;;;5054039;28;20028;-61
2021/07/21 14:40:48;;;;;;;2.90;2.70;;;;;;;;;;5054569;28;20542;-61
2021/07/21 14:43:15;;;;;;;2.72;2.53;;;;;;;;;;5052802;28;20017;-61
2021/07/21 14:45:40;;;;;;;2.70;2.50;;;;;;;;;;5054372;28;20029;-61
2021/07/21 14:48:06;;;;;;;2.95;2.38;;;;;;;;;;5054041;28;20032;-61
2021/07/21 14:50:32;;;;;;;4.38;2.72;;;;;;;;;;5066492;28;20045;-60
2021/07/21 14:52:57;;;;;;;2.80;2.60;;;;;;;;;;5072347;28;20082;-61
2021/07/21 14:55:27;;;;;;;3.63;2.80;;;;;;;;;;5073416;28;20016;-61
2021/07/21 14:57:54;;;;;;;2.90;2.60;;;;;;;;;;5074564;28;20054;-61
2021/07/21 15:03:54;;;;;;;3.35;2.78;;;;;;;;;;5075093;28;20183;-61
2021/07/21 15:09:55;;;;;;;4.90;2.92;;;;;;;;;;5074647;28;20143;-61
2021/07/21 15:15:55;;;;;;;3.00;2.72;;;;;;;;;;5074857;28;20043;-61
2021/07/21 15:21:55;;;;;;;3.63;3.20;;;;;;;;;;5074454;28;20091;-61
2021/07/21 15:27:57;;;;;;;3.50;2.72;;;;;;;;;;5074530;28;20089;-61
2021/07/21 15:33:57;;;;;;;4.13;2.80;;;;;;;;;;5074268;28;20020;-61
2021/07/21 15:39:58;;;;;;;3.53;2.72;;;;;;;;;;5074139;28;20027;-61
2021/07/21 15:45:58;;;;;;;3.20;2.50;;;;;;;;;;5074570;28;20020;-61
2021/07/21 15:48:27;;;;;;;3.00;2.60;;;;;;;;;;5067339;28;20024;-61
2021/07/21 15:50:53;;;;;;;4.25;3.42;;;;;;;;;;5070741;28;20123;-61
2021/07/21 15:53:19;;;;;;;3.08;2.75;;;;;;;;;;5079343;28;20028;-72
2021/07/21 15:55:46;;;;;;;3.63;3.20;;;;;;;;;;5090255;28;20035;-61
2021/07/21 15:58:12;;;;;;;3.10;2.80;;;;;;;;;;5090014;28;20036;-69
2021/07/21 16:00:39;;;;;;;3.97;3.30;;;;;;;;;;5090368;28;20425;-69
2021/07/21 16:03:05;;;;;;;4.53;3.90;;;;;;;;;;5090274;28;20028;-69
2021/07/21 16:05:30;;;;;;;99.78;53.75;;;;;;;;;;5089740;28;20023;-69
2021/07/21 16:07:56;;;;;;;13.27;8.48;;;;;;;;;;5089462;28;20737;-69
2021/07/21 16:10:21;;;;;;;11.63;6.70;;;;;;;;;;5090282;28;20035;-69
2021/07/21 16:12:50;;;;;;;4.38;3.08;;;;;;;;;;5090129;28;20023;-68
2021/07/21 16:15:16;;;;;;;5.38;4.10;;;;;;;;;;5090037;28;20023;-69
2021/07/21 16:17:42;;;;;;;5.57;4.18;;;;;;;;;;5089654;28;20024;-69
2021/07/21 16:20:08;;;;;;;5.35;4.10;;;;;;;;;;5089482;28;20422;-69
2021/07/21 16:22:34;;;;;;;5.22;3.42;;;;;;;;;;5089656;28;20046;-68
2021/07/21 16:25:00;;;;;;;4.93;3.05;;;;;;;;;;5089370;28;20032;-70
2021/07/21 16:27:28;;;;;;;3.83;2.85;;;;;;;;;;5089438;28;20031;-69
2021/07/21 16:29:53;;;;;;;3.47;3.28;;;;;;;;;;5089576;28;20471;-69
2021/07/21 16:32:19;;;;;;;3.30;3.10;;;;;;;;;;5089541;28;20032;-69
2021/07/21 16:34:44;;;;;;;4.47;3.25;;;;;;;;;;5089894;28;20460;-70
2021/07/21 16:37:10;;;;;;;3.60;2.83;;;;;;;;;;5089978;28;20024;-70
2021/07/21 16:39:35;;;;;;;5.15;3.55;;;;;;;;;;5089627;28;20024;-69
2021/07/21 16:42:01;;;;;;;3.50;3.20;;;;;;;;;;5089881;28;20114;-69
2021/07/21 16:44:27;;;;;;;3.72;2.85;;;;;;;;;;5089965;28;20467;-70
2021/07/21 16:46:53;;;;;;;3.63;2.85;;;;;;;;;;5089628;28;20032;-70
2021/07/21 16:49:18;;;;;;;4.70;2.72;;;;;;;;;;5089203;28;20116;-71
2021/07/21 16:51:44;;;;;;;3.22;2.92;;;;;;;;;;5090137;28;20028;-69
2021/07/21 16:54:09;;;;;;;3.38;3.08;;;;;;;;;;5089801;28;20032;-69
2021/07/21 16:56:35;;;;;;;3.40;3.10;;;;;;;;;;5090108;28;20464;-74
2021/07/21 16:59:00;;;;;;;2.90;2.70;;;;;;;;;;5089374;28;20394;-74
2021/07/21 17:01:26;;;;;;;3.85;3.30;;;;;;;;;;5076390;28;20035;-74
2021/07/21 17:03:51;;;;;;;4.22;3.10;;;;;;;;;;5071661;28;20024;-73
2021/07/21 17:06:19;;;;;;;3.13;2.75;;;;;;;;;;5089599;28;20131;-73
2021/07/21 17:08:45;;;;;;;2.88;2.67;;;;;;;;;;5089492;28;20111;-73
2021/07/21 17:11:10;;;;;;;3.65;3.15;;;;;;;;;;5089776;28;20135;-73
2021/07/21 17:13:36;;;;;;;3.60;3.30;;;;;;;;;;5089686;28;20016;-72
2021/07/21 17:16:02;;;;;;;3.20;3.00;;;;;;;;;;5089734;28;20028;-72
2021/07/21 17:18:27;;;;;;;3.60;2.92;;;;;;;;;;5092479;28;20058;-71
2021/07/21 17:20:53;;;;;;;3.78;3.38;;;;;;;;;;5093738;28;20040;-71
2021/07/21 17:23:19;;;;;;;4.88;3.08;;;;;;;;;;5093574;28;20042;-72
2021/07/21 17:25:46;;;;;;;3.72;2.80;;;;;;;;;;5093379;28;20040;-71
2021/07/21 17:28:14;;;;;;;5.40;2.88;;;;;;;;;;5093007;28;20028;-71
2021/07/21 17:30:40;;;;;;;3.65;3.00;;;;;;;;;;5093473;28;20903;-71
2021/07/21 17:33:06;;;;;;;3.83;3.40;;;;;;;;;;5093239;28;20115;-72
2021/07/21 17:35:31;;;;;;;3.75;3.42;;;;;;;;;;5093024;28;20115;-71
2021/07/21 17:37:57;;;;;;;3.20;3.00;;;;;;;;;;5093030;28;20028;-71
2021/07/21 17:40:23;;;;;;;4.38;3.50;;;;;;;;;;5093184;28;20035;-71
2021/07/21 17:42:49;;;;;;;4.03;3.15;;;;;;;;;;5093101;28;20028;-71
2021/07/21 17:45:15;;;;;;;4.78;3.03;;;;;;;;;;5092953;28;20024;-71
2021/07/21 17:47:41;;;;;;;3.92;3.25;;;;;;;;;;5074293;28;20024;-71
2021/07/21 17:50:09;;;;;;;3.03;2.72;;;;;;;;;;5092192;28;20048;-71
2021/07/21 17:52:34;;;;;;;3.63;3.33;;;;;;;;;;5092941;28;20028;-62
2021/07/21 17:55:00;;;;;;;3.90;3.13;;;;;;;;;;5092595;28;20085;-62
2021/07/21 17:57:25;;;;;;;4.80;2.95;;;;;;;;;;5092430;28;20024;-60
2021/07/21 17:59:51;;;;;;;3.28;2.97;;;;;;;;;;5092731;28;20067;-60
2021/07/21 18:02:16;;;;;;;3.13;2.88;;;;;;;;;;5092639;28;20028;-68
2021/07/21 18:04:42;;;;;;;3.85;3.22;;;;;;;;;;5074248;28;20032;-60
2021/07/21 18:07:07;;;;;;;3.22;2.95;;;;;;;;;;5092129;28;20099;-60
2021/07/21 18:09:33;;;;;;;3.25;3.05;;;;;;;;;;5092194;28;20032;-60
2021/07/21 18:12:00;;;;;;;3.65;3.42;;;;;;;;;;5074089;28;20024;-60
2021/07/21 18:14:25;;;;;;;3.33;3.03;;;;;;;;;;5092222;28;20035;-60
2021/07/21 18:16:51;;;;;;;4.90;3.35;;;;;;;;;;5092270;28;20024;-60
2021/07/21 18:19:16;;;;;;;4.80;3.38;;;;;;;;;;5092130;28;20133;-60
2021/07/21 18:21:42;;;;;;;3.80;3.40;;;;;;;;;;5092125;28;20027;-60
2021/07/21 18:24:07;;;;;;;4.10;3.60;;;;;;;;;;5074160;28;20032;-60
2021/07/21 18:26:33;;;;;;;3.20;3.00;;;;;;;;;;5092312;28;20020;-60
2021/07/21 18:28:59;;;;;;;3.47;3.22;;;;;;;;;;5091527;28;20054;-60
2021/07/21 18:31:24;;;;;;;4.20;3.08;;;;;;;;;;5092193;28;20024;-60
2021/07/21 18:33:50;;;;;;;5.47;3.92;;;;;;;;;;5091825;28;20203;-60
2021/07/21 18:36:15;;;;;;;5.13;3.45;;;;;;;;;;5073738;28;20020;-60
2021/07/21 18:38:41;;;;;;;3.83;3.47;;;;;;;;;;5091924;28;20028;-60
2021/07/21 18:41:06;;;;;;;6.28;3.53;;;;;;;;;;5091874;28;20027;-68
2021/07/21 18:43:34;;;;;;;5.63;3.58;;;;;;;;;;5091955;28;20138;-60
2021/07/21 18:46:00;;;;;;;3.78;3.17;;;;;;;;;;5057025;28;20031;-61
2021/07/21 18:48:26;;;;;;;4.38;3.88;;;;;;;;;;5091327;28;20036;-61